sensor_id;sensor_type;location;lat;lon;timestamp;temperature;humidity
30385;DHT22;17181;51.002;4.096;2023-08-08T00:02:18;15.80;99.90
30385;DHT22;17181;51.002;4.096;2023-08-08T00:04:44;15.70;99.90
30385;DHT22;17181;51.002;4.096;2023-08-08T00:07:10;15.70;99.90
30385;DHT22;17181;51.002;4.096;2023-08-08T00:09:36;15.70;99.90
30385;DHT22;17181;51.002;4.096;2023-08-08T00:12:03;15.70;99.90
30385;DHT22;17181;51.002;4.096;2023-08-08T00:14:29;15.70;99.90
30385;DHT22;17181;51.002;4.096;2023-08-08T00:16:55;15.70;99.90
30385;DHT22;17181;51.002;4.096;2023-08-08T00:19:21;15.70;99.90
30385;DHT22;17181;51.002;4.096;2023-08-08T00:21:47;15.70;99.90
30385;DHT22;17181;51.002;4.096;2023-08-08T00:24:13;15.70;99.90
30385;DHT22;17181;51.002;4.096;2023-08-08T00:26:38;15.70;99.90
30385;DHT22;17181;51.002;4.096;2023-08-08T00:29:04;15.70;99.90
30385;DHT22;17181;51.002;4.096;2023-08-08T00:31:33;15.70;99.90
30385;DHT22;17181;51.002;4.096;2023-08-08T00:33:59;15.70;99.90
30385;DHT22;17181;51.002;4.096;2023-08-08T00:36:24;15.70;99.90
30385;DHT22;17181;51.002;4.096;2023-08-08T00:38:52;15.70;99.90
30385;DHT22;17181;51.002;4.096;2023-08-08T00:41:17;15.70;99.90
30385;DHT22;17181;51.002;4.096;2023-08-08T00:43:43;15.70;99.90
30385;DHT22;17181;51.002;4.096;2023-08-08T00:46:10;15.70;99.90
30385;DHT22;17181;51.002;4.096;2023-08-08T00:48:37;15.70;99.90
30385;DHT22;17181;51.002;4.096;2023-08-08T00:51:06;15.80;99.90
30385;DHT22;17181;51.002;4.096;2023-08-08T00:53:32;15.70;99.90
30385;DHT22;17181;51.002;4.096;2023-08-08T00:55:59;15.70;99.90
30385;DHT22;17181;51.002;4.096;2023-08-08T00:58:26;15.70;99.90
30385;DHT22;17181;51.002;4.096;2023-08-08T01:00:52;15.70;99.90
30385;DHT22;17181;51.002;4.096;2023-08-08T01:03:20;15.60;99.90
30385;DHT22;17181;51.002;4.096;2023-08-08T01:06:20;15.70;99.90
30385;DHT22;17181;51.002;4.096;2023-08-08T01:08:51;15.70;99.90
30385;DHT22;17181;51.002;4.096;2023-08-08T01:11:19;15.60;99.90
30385;DHT22;17181;51.002;4.096;2023-08-08T01:13:45;15.70;99.90
30385;DHT22;17181;51.002;4.096;2023-08-08T01:16:15;15.60;99.90
30385;DHT22;17181;51.002;4.096;2023-08-08T01:18:43;15.60;99.90
30385;DHT22;17181;51.002;4.096;2023-08-08T01:21:11;15.60;99.90
30385;DHT22;17181;51.002;4.096;2023-08-08T01:23:56;15.70;99.90
30385;DHT22;17181;51.002;4.096;2023-08-08T01:26:26;15.60;99.90
30385;DHT22;17181;51.002;4.096;2023-08-08T01:28:58;15.70;99.90
30385;DHT22;17181;51.002;4.096;2023-08-08T01:31:25;15.60;99.90
30385;DHT22;17181;51.002;4.096;2023-08-08T01:33:52;15.60;99.90
30385;DHT22;17181;51.002;4.096;2023-08-08T01:36:27;15.60;99.90
30385;DHT22;17181;51.002;4.096;2023-08-08T01:38:59;15.60;99.90
30385;DHT22;17181;51.002;4.096;2023-08-08T01:41:33;15.60;99.90
30385;DHT22;17181;51.002;4.096;2023-08-08T01:44:00;15.60;99.90
30385;DHT22;17181;51.002;4.096;2023-08-08T01:46:29;15.60;99.90
30385;DHT22;17181;51.002;4.096;2023-08-08T01:48:58;15.60;99.90
30385;DHT22;17181;51.002;4.096;2023-08-08T01:51:24;15.60;99.90
30385;DHT22;17181;51.002;4.096;2023-08-08T01:53:51;15.60;99.90
30385;DHT22;17181;51.002;4.096;2023-08-08T01:56:18;15.60;99.90
30385;DHT22;17181;51.002;4.096;2023-08-08T01:58:44;15.60;99.90
30385;DHT22;17181;51.002;4.096;2023-08-08T02:01:10;15.60;99.90
30385;DHT22;17181;51.002;4.096;2023-08-08T02:03:37;15.50;99.90
30385;DHT22;17181;51.002;4.096;2023-08-08T02:06:05;15.60;99.90
30385;DHT22;17181;51.002;4.096;2023-08-08T02:08:31;15.50;99.90
30385;DHT22;17181;51.002;4.096;2023-08-08T02:10:57;15.50;99.90
30385;DHT22;17181;51.002;4.096;2023-08-08T02:13:23;15.50;99.90
30385;DHT22;17181;51.002;4.096;2023-08-08T02:15:50;15.50;99.90
30385;DHT22;17181;51.002;4.096;2023-08-08T02:18:16;15.50;99.90
30385;DHT22;17181;51.002;4.096;2023-08-08T02:20:42;15.50;99.90
30385;DHT22;17181;51.002;4.096;2023-08-08T02:23:12;15.50;99.90
30385;DHT22;17181;51.002;4.096;2023-08-08T02:25:38;15.50;99.90
30385;DHT22;17181;51.002;4.096;2023-08-08T02:28:05;15.40;99.90
30385;DHT22;17181;51.002;4.096;2023-08-08T02:30:31;15.40;99.90
30385;DHT22;17181;51.002;4.096;2023-08-08T02:33:00;15.40;99.90
30385;DHT22;17181;51.002;4.096;2023-08-08T02:35:31;15.40;99.90
30385;DHT22;17181;51.002;4.096;2023-08-08T02:37:57;15.40;99.90
30385;DHT22;17181;51.002;4.096;2023-08-08T02:40:23;15.30;99.90
30385;DHT22;17181;51.002;4.096;2023-08-08T02:42:55;15.40;99.90
30385;DHT22;17181;51.002;4.096;2023-08-08T02:45:23;15.30;99.90
30385;DHT22;17181;51.002;4.096;2023-08-08T02:47:49;15.40;99.90
30385;DHT22;17181;51.002;4.096;2023-08-08T02:50:33;15.30;99.90
30385;DHT22;17181;51.002;4.096;2023-08-08T02:53:00;15.30;99.90
30385;DHT22;17181;51.002;4.096;2023-08-08T02:55:31;15.40;99.90
30385;DHT22;17181;51.002;4.096;2023-08-08T02:58:00;15.30;99.90
30385;DHT22;17181;51.002;4.096;2023-08-08T03:00:25;15.30;99.90
30385;DHT22;17181;51.002;4.096;2023-08-08T03:02:53;15.30;99.90
30385;DHT22;17181;51.002;4.096;2023-08-08T03:05:19;15.30;99.90
30385;DHT22;17181;51.002;4.096;2023-08-08T03:07:46;15.30;99.90
30385;DHT22;17181;51.002;4.096;2023-08-08T03:10:13;15.30;99.90
30385;DHT22;17181;51.002;4.096;2023-08-08T03:12:41;15.30;99.90
30385;DHT22;17181;51.002;4.096;2023-08-08T03:15:08;15.20;99.90
30385;DHT22;17181;51.002;4.096;2023-08-08T03:17:36;15.20;99.90
30385;DHT22;17181;51.002;4.096;2023-08-08T03:20:07;15.20;99.90
30385;DHT22;17181;51.002;4.096;2023-08-08T03:22:34;15.20;99.90
30385;DHT22;17181;51.002;4.096;2023-08-08T03:25:00;15.20;99.90
30385;DHT22;17181;51.002;4.096;2023-08-08T03:27:36;15.20;99.90
30385;DHT22;17181;51.002;4.096;2023-08-08T03:30:03;15.20;99.90
30385;DHT22;17181;51.002;4.096;2023-08-08T03:32:56;15.20;99.90
30385;DHT22;17181;51.002;4.096;2023-08-08T03:35:41;15.20;99.90
30385;DHT22;17181;51.002;4.096;2023-08-08T03:38:10;15.20;99.90
30385;DHT22;17181;51.002;4.096;2023-08-08T03:40:36;15.10;99.90
30385;DHT22;17181;51.002;4.096;2023-08-08T03:43:02;15.10;99.90
30385;DHT22;17181;51.002;4.096;2023-08-08T03:45:29;15.10;99.90
30385;DHT22;17181;51.002;4.096;2023-08-08T03:47:55;15.10;99.90
30385;DHT22;17181;51.002;4.096;2023-08-08T03:50:24;15.10;99.90
30385;DHT22;17181;51.002;4.096;2023-08-08T03:52:51;15.10;99.90
30385;DHT22;17181;51.002;4.096;2023-08-08T03:55:19;15.20;99.90
30385;DHT22;17181;51.002;4.096;2023-08-08T03:57:46;15.10;99.90
30385;DHT22;17181;51.002;4.096;2023-08-08T04:00:12;15.10;99.90
30385;DHT22;17181;51.002;4.096;2023-08-08T04:02:41;15.10;99.90
30385;DHT22;17181;51.002;4.096;2023-08-08T04:05:27;15.10;99.90
30385;DHT22;17181;51.002;4.096;2023-08-08T04:07:54;15.10;99.90
30385;DHT22;17181;51.002;4.096;2023-08-08T04:10:20;15.10;99.90
30385;DHT22;17181;51.002;4.096;2023-08-08T04:12:47;15.10;99.90
30385;DHT22;17181;51.002;4.096;2023-08-08T04:15:13;15.10;99.90
30385;DHT22;17181;51.002;4.096;2023-08-08T04:17:39;15.10;99.90
30385;DHT22;17181;51.002;4.096;2023-08-08T04:20:06;15.10;99.90
30385;DHT22;17181;51.002;4.096;2023-08-08T04:22:32;15.10;99.90
30385;DHT22;17181;51.002;4.096;2023-08-08T04:24:59;15.10;99.90
30385;DHT22;17181;51.002;4.096;2023-08-08T04:27:25;15.10;99.90
30385;DHT22;17181;51.002;4.096;2023-08-08T04:29:52;15.00;99.90
30385;DHT22;17181;51.002;4.096;2023-08-08T04:32:22;15.10;99.90
30385;DHT22;17181;51.002;4.096;2023-08-08T04:34:49;15.20;99.90
30385;DHT22;17181;51.002;4.096;2023-08-08T04:37:15;15.00;99.90
30385;DHT22;17181;51.002;4.096;2023-08-08T04:39:50;15.10;99.90
30385;DHT22;17181;51.002;4.096;2023-08-08T04:42:27;15.00;99.90
30385;DHT22;17181;51.002;4.096;2023-08-08T04:44:54;15.10;99.90
30385;DHT22;17181;51.002;4.096;2023-08-08T04:47:21;15.10;99.90
30385;DHT22;17181;51.002;4.096;2023-08-08T04:49:48;15.20;99.90
30385;DHT22;17181;51.002;4.096;2023-08-08T04:52:16;15.20;99.90
30385;DHT22;17181;51.002;4.096;2023-08-08T04:57:47;15.10;99.90
30385;DHT22;17181;51.002;4.096;2023-08-08T05:02:47;15.10;99.90
30385;DHT22;17181;51.002;4.096;2023-08-08T05:05:47;15.20;99.90
30385;DHT22;17181;51.002;4.096;2023-08-08T05:08:48;15.30;99.90
30385;DHT22;17181;51.002;4.096;2023-08-08T05:11:20;15.30;99.90
30385;DHT22;17181;51.002;4.096;2023-08-08T05:13:55;15.20;99.90
30385;DHT22;17181;51.002;4.096;2023-08-08T05:16:21;15.30;99.90
30385;DHT22;17181;51.002;4.096;2023-08-08T05:18:53;15.30;99.90
30385;DHT22;17181;51.002;4.096;2023-08-08T05:41:19;15.80;99.90
30385;DHT22;17181;51.002;4.096;2023-08-08T05:43:55;15.90;99.90
30385;DHT22;17181;51.002;4.096;2023-08-08T05:46:22;15.90;99.90
30385;DHT22;17181;51.002;4.096;2023-08-08T05:48:48;16.00;99.90
30385;DHT22;17181;51.002;4.096;2023-08-08T06:34:37;16.50;99.90
30385;DHT22;17181;51.002;4.096;2023-08-08T06:37:30;16.60;99.90
30385;DHT22;17181;51.002;4.096;2023-08-08T06:39:56;16.70;99.90
30385;DHT22;17181;51.002;4.096;2023-08-08T06:42:22;16.80;99.90
30385;DHT22;17181;51.002;4.096;2023-08-08T07:39:09;18.10;99.90
30385;DHT22;17181;51.002;4.096;2023-08-08T07:41:36;18.10;99.90
30385;DHT22;17181;51.002;4.096;2023-08-08T07:44:03;18.10;99.90
30385;DHT22;17181;51.002;4.096;2023-08-08T07:46:32;18.20;99.90
30385;DHT22;17181;51.002;4.096;2023-08-08T11:28:02;20.90;99.30
30385;DHT22;17181;51.002;4.096;2023-08-08T11:30:37;20.80;98.80
30385;DHT22;17181;51.002;4.096;2023-08-08T11:33:07;20.70;99.20
30385;DHT22;17181;51.002;4.096;2023-08-08T11:35:34;20.70;99.20
30385;DHT22;17181;51.002;4.096;2023-08-08T11:38:00;20.60;99.30
30385;DHT22;17181;51.002;4.096;2023-08-08T11:40:28;20.50;99.80
30385;DHT22;17181;51.002;4.096;2023-08-08T11:42:56;20.60;99.80
30385;DHT22;17181;51.002;4.096;2023-08-08T11:45:25;20.70;99.40
30385;DHT22;17181;51.002;4.096;2023-08-08T11:47:56;20.80;99.00
30385;DHT22;17181;51.002;4.096;2023-08-08T11:50:27;21.00;98.30
30385;DHT22;17181;51.002;4.096;2023-08-08T11:52:55;21.00;97.50
30385;DHT22;17181;51.002;4.096;2023-08-08T11:55:28;20.90;97.30
30385;DHT22;17181;51.002;4.096;2023-08-08T11:57:56;21.00;96.20
30385;DHT22;17181;51.002;4.096;2023-08-08T12:00:29;21.00;96.70
30385;DHT22;17181;51.002;4.096;2023-08-08T12:02:56;21.10;97.30
30385;DHT22;17181;51.002;4.096;2023-08-08T12:05:25;21.30;97.70
30385;DHT22;17181;51.002;4.096;2023-08-08T12:07:51;21.50;96.50
30385;DHT22;17181;51.002;4.096;2023-08-08T12:10:25;21.70;96.50
30385;DHT22;17181;51.002;4.096;2023-08-08T12:12:57;21.80;95.70
30385;DHT22;17181;51.002;4.096;2023-08-08T12:15:29;21.80;95.40
30385;DHT22;17181;51.002;4.096;2023-08-08T12:17:58;21.90;95.20
30385;DHT22;17181;51.002;4.096;2023-08-08T12:20:30;21.90;94.70
30385;DHT22;17181;51.002;4.096;2023-08-08T12:22:57;21.90;94.80
30385;DHT22;17181;51.002;4.096;2023-08-08T12:25:23;22.00;94.80
30385;DHT22;17181;51.002;4.096;2023-08-08T12:27:49;22.00;94.00
30385;DHT22;17181;51.002;4.096;2023-08-08T12:30:15;22.00;94.40
30385;DHT22;17181;51.002;4.096;2023-08-08T12:32:41;22.00;95.30
30385;DHT22;17181;51.002;4.096;2023-08-08T12:35:07;22.10;95.30
30385;DHT22;17181;51.002;4.096;2023-08-08T12:37:33;22.20;94.80
30385;DHT22;17181;51.002;4.096;2023-08-08T12:39:59;22.30;94.20
30385;DHT22;17181;51.002;4.096;2023-08-08T12:42:25;22.30;93.90
30385;DHT22;17181;51.002;4.096;2023-08-08T12:44:53;22.20;93.50
30385;DHT22;17181;51.002;4.096;2023-08-08T12:47:19;22.30;94.00
30385;DHT22;17181;51.002;4.096;2023-08-08T12:49:46;22.30;93.80
30385;DHT22;17181;51.002;4.096;2023-08-08T12:52:13;22.30;93.50
30385;DHT22;17181;51.002;4.096;2023-08-08T12:54:39;22.30;93.70
30385;DHT22;17181;51.002;4.096;2023-08-08T12:57:05;22.20;93.60
30385;DHT22;17181;51.002;4.096;2023-08-08T12:59:34;22.10;93.70
30385;DHT22;17181;51.002;4.096;2023-08-08T13:02:00;22.10;93.90
30385;DHT22;17181;51.002;4.096;2023-08-08T13:04:26;22.00;93.10
30385;DHT22;17181;51.002;4.096;2023-08-08T13:06:54;22.00;92.90
30385;DHT22;17181;51.002;4.096;2023-08-08T13:09:20;22.00;93.50
30385;DHT22;17181;51.002;4.096;2023-08-08T13:11:46;22.10;93.40
30385;DHT22;17181;51.002;4.096;2023-08-08T13:14:11;22.00;93.30
30385;DHT22;17181;51.002;4.096;2023-08-08T13:16:37;22.00;93.50
30385;DHT22;17181;51.002;4.096;2023-08-08T13:19:03;22.00;93.30
30385;DHT22;17181;51.002;4.096;2023-08-08T13:21:31;21.90;93.50
30385;DHT22;17181;51.002;4.096;2023-08-08T13:23:57;21.90;93.70
30385;DHT22;17181;51.002;4.096;2023-08-08T13:26:23;21.90;94.20
30385;DHT22;17181;51.002;4.096;2023-08-08T13:28:49;22.00;94.60
30385;DHT22;17181;51.002;4.096;2023-08-08T13:31:16;22.10;94.70
30385;DHT22;17181;51.002;4.096;2023-08-08T13:33:41;22.30;93.60
30385;DHT22;17181;51.002;4.096;2023-08-08T13:39:13;22.40;92.40
30385;DHT22;17181;51.002;4.096;2023-08-08T13:41:39;22.40;92.80
30385;DHT22;17181;51.002;4.096;2023-08-08T13:44:05;22.40;92.90
30385;DHT22;17181;51.002;4.096;2023-08-08T13:46:36;22.60;92.80
30385;DHT22;17181;51.002;4.096;2023-08-08T13:49:04;22.70;92.80
30385;DHT22;17181;51.002;4.096;2023-08-08T13:51:31;22.70;92.90
30385;DHT22;17181;51.002;4.096;2023-08-08T13:53:58;22.60;92.10
30385;DHT22;17181;51.002;4.096;2023-08-08T13:56:27;22.50;91.90
30385;DHT22;17181;51.002;4.096;2023-08-08T13:58:54;22.30;91.70
30385;DHT22;17181;51.002;4.096;2023-08-08T14:01:20;22.10;91.80
30385;DHT22;17181;51.002;4.096;2023-08-08T14:03:47;21.90;92.10
30385;DHT22;17181;51.002;4.096;2023-08-08T14:06:13;21.80;92.20
30385;DHT22;17181;51.002;4.096;2023-08-08T14:08:39;21.50;92.60
30385;DHT22;17181;51.002;4.096;2023-08-08T14:11:05;21.30;93.00
30385;DHT22;17181;51.002;4.096;2023-08-08T14:13:31;21.30;93.40
30385;DHT22;17181;51.002;4.096;2023-08-08T14:15:57;21.20;93.70
30385;DHT22;17181;51.002;4.096;2023-08-08T14:18:23;21.00;93.90
30385;DHT22;17181;51.002;4.096;2023-08-08T14:20:48;21.00;94.10
30385;DHT22;17181;51.002;4.096;2023-08-08T14:23:14;20.90;94.40
30385;DHT22;17181;51.002;4.096;2023-08-08T14:25:41;20.80;94.70
30385;DHT22;17181;51.002;4.096;2023-08-08T14:28:07;20.80;95.00
30385;DHT22;17181;51.002;4.096;2023-08-08T14:30:33;20.80;95.20
30385;DHT22;17181;51.002;4.096;2023-08-08T14:32:59;20.70;95.30
30385;DHT22;17181;51.002;4.096;2023-08-08T14:35:24;20.60;95.50
30385;DHT22;17181;51.002;4.096;2023-08-08T14:37:50;20.60;95.70
30385;DHT22;17181;51.002;4.096;2023-08-08T14:40:16;20.50;95.80
30385;DHT22;17181;51.002;4.096;2023-08-08T14:42:42;20.50;96.00
30385;DHT22;17181;51.002;4.096;2023-08-08T14:45:08;20.50;96.20
30385;DHT22;17181;51.002;4.096;2023-08-08T14:47:34;20.50;96.50
30385;DHT22;17181;51.002;4.096;2023-08-08T14:49:59;20.50;96.60
30385;DHT22;17181;51.002;4.096;2023-08-08T14:52:25;20.50;96.70
30385;DHT22;17181;51.002;4.096;2023-08-08T14:54:51;20.50;96.80
30385;DHT22;17181;51.002;4.096;2023-08-08T14:57:18;20.50;97.00
30385;DHT22;17181;51.002;4.096;2023-08-08T14:59:44;20.50;97.30
30385;DHT22;17181;51.002;4.096;2023-08-08T15:02:10;20.40;97.40
30385;DHT22;17181;51.002;4.096;2023-08-08T15:04:47;20.40;97.60
30385;DHT22;17181;51.002;4.096;2023-08-08T15:07:13;20.20;97.90
30385;DHT22;17181;51.002;4.096;2023-08-08T15:21:03;19.30;99.90
30385;DHT22;17181;51.002;4.096;2023-08-08T15:23:33;19.20;99.90
30385;DHT22;17181;51.002;4.096;2023-08-08T15:26:00;19.20;99.90
30385;DHT22;17181;51.002;4.096;2023-08-08T15:28:27;19.10;99.90
30385;DHT22;17181;51.002;4.096;2023-08-08T15:30:53;19.10;99.90
30385;DHT22;17181;51.002;4.096;2023-08-08T15:33:19;19.00;99.90
30385;DHT22;17181;51.002;4.096;2023-08-08T15:35:47;19.00;99.90
30385;DHT22;17181;51.002;4.096;2023-08-08T15:38:14;19.10;99.90
30385;DHT22;17181;51.002;4.096;2023-08-08T15:40:39;19.10;99.90
30385;DHT22;17181;51.002;4.096;2023-08-08T15:43:05;19.10;99.90
30385;DHT22;17181;51.002;4.096;2023-08-08T15:45:32;19.20;99.90
30385;DHT22;17181;51.002;4.096;2023-08-08T15:47:58;19.10;99.90
30385;DHT22;17181;51.002;4.096;2023-08-08T15:50:24;19.00;99.90
30385;DHT22;17181;51.002;4.096;2023-08-08T15:52:50;18.80;99.90
30385;DHT22;17181;51.002;4.096;2023-08-08T16:38:17;17.80;99.90
30385;DHT22;17181;51.002;4.096;2023-08-08T16:44:02;17.70;99.90
30385;DHT22;17181;51.002;4.096;2023-08-08T16:46:35;17.70;99.90
30385;DHT22;17181;51.002;4.096;2023-08-08T16:49:02;17.70;99.90
30385;DHT22;17181;51.002;4.096;2023-08-08T16:51:28;17.70;99.90
30385;DHT22;17181;51.002;4.096;2023-08-08T16:53:57;17.70;99.90
30385;DHT22;17181;51.002;4.096;2023-08-08T16:56:27;17.70;99.90
30385;DHT22;17181;51.002;4.096;2023-08-08T17:22:22;17.70;99.90
30385;DHT22;17181;51.002;4.096;2023-08-08T17:24:48;17.60;99.90
30385;DHT22;17181;51.002;4.096;2023-08-08T17:27:14;17.70;99.90
30385;DHT22;17181;51.002;4.096;2023-08-08T17:29:40;17.60;99.90
30385;DHT22;17181;51.002;4.096;2023-08-08T17:32:06;17.60;99.90
30385;DHT22;17181;51.002;4.096;2023-08-08T17:34:32;17.60;99.90
30385;DHT22;17181;51.002;4.096;2023-08-08T17:48:36;17.40;99.90
30385;DHT22;17181;51.002;4.096;2023-08-08T17:51:06;17.40;99.90
30385;DHT22;17181;51.002;4.096;2023-08-08T17:53:33;17.40;99.90
30385;DHT22;17181;51.002;4.096;2023-08-08T17:56:00;17.40;99.90
30385;DHT22;17181;51.002;4.096;2023-08-08T17:58:25;17.50;99.90
30385;DHT22;17181;51.002;4.096;2023-08-08T18:00:51;17.40;99.90
30385;DHT22;17181;51.002;4.096;2023-08-08T18:03:17;17.40;99.90
30385;DHT22;17181;51.002;4.096;2023-08-08T18:05:44;17.40;99.90
30385;DHT22;17181;51.002;4.096;2023-08-08T18:08:10;17.40;99.90
30385;DHT22;17181;51.002;4.096;2023-08-08T18:10:40;17.40;99.90
30385;DHT22;17181;51.002;4.096;2023-08-08T18:13:07;17.40;99.90
30385;DHT22;17181;51.002;4.096;2023-08-08T18:15:34;17.30;99.90
30385;DHT22;17181;51.002;4.096;2023-08-08T18:18:00;17.30;99.90
30385;DHT22;17181;51.002;4.096;2023-08-08T18:20:28;17.30;99.90
30385;DHT22;17181;51.002;4.096;2023-08-08T18:22:57;17.20;99.90
30385;DHT22;17181;51.002;4.096;2023-08-08T18:38:16;16.90;99.90
30385;DHT22;17181;51.002;4.096;2023-08-08T18:40:48;17.00;99.90
30385;DHT22;17181;51.002;4.096;2023-08-08T18:43:15;17.00;99.90
30385;DHT22;17181;51.002;4.096;2023-08-08T18:45:41;17.00;99.90
30385;DHT22;17181;51.002;4.096;2023-08-08T18:48:07;16.90;99.90
30385;DHT22;17181;51.002;4.096;2023-08-08T19:27:21;16.80;99.90
30385;DHT22;17181;51.002;4.096;2023-08-08T19:29:48;16.90;99.90
30385;DHT22;17181;51.002;4.096;2023-08-08T19:32:20;16.80;99.90
30385;DHT22;17181;51.002;4.096;2023-08-08T19:38:06;16.80;99.90
30385;DHT22;17181;51.002;4.096;2023-08-08T19:40:38;16.70;99.90
30385;DHT22;17181;51.002;4.096;2023-08-08T19:43:06;16.80;99.90
30385;DHT22;17181;51.002;4.096;2023-08-08T19:45:32;16.70;99.90
30385;DHT22;17181;51.002;4.096;2023-08-08T19:47:58;16.70;99.90
30385;DHT22;17181;51.002;4.096;2023-08-08T19:50:24;16.70;99.90
30385;DHT22;17181;51.002;4.096;2023-08-08T19:53:01;16.70;99.90
30385;DHT22;17181;51.002;4.096;2023-08-08T19:55:30;16.70;99.90
30385;DHT22;17181;51.002;4.096;2023-08-08T20:09:27;16.60;99.90
30385;DHT22;17181;51.002;4.096;2023-08-08T20:11:54;16.60;99.90
30385;DHT22;17181;51.002;4.096;2023-08-08T20:14:19;16.60;99.90
30385;DHT22;17181;51.002;4.096;2023-08-08T20:16:46;16.60;99.90
30385;DHT22;17181;51.002;4.096;2023-08-08T20:19:11;16.60;99.90
30385;DHT22;17181;51.002;4.096;2023-08-08T20:21:37;16.70;99.90
30385;DHT22;17181;51.002;4.096;2023-08-08T20:24:04;16.70;99.90
30385;DHT22;17181;51.002;4.096;2023-08-08T20:26:32;16.70;99.90
30385;DHT22;17181;51.002;4.096;2023-08-08T20:28:58;16.70;99.90
30385;DHT22;17181;51.002;4.096;2023-08-08T20:31:24;16.70;99.90
30385;DHT22;17181;51.002;4.096;2023-08-08T20:33:50;16.80;99.90
30385;DHT22;17181;51.002;4.096;2023-08-08T20:36:17;16.80;99.90
30385;DHT22;17181;51.002;4.096;2023-08-08T20:38:46;16.80;99.90
30385;DHT22;17181;51.002;4.096;2023-08-08T20:41:17;16.90;99.90
30385;DHT22;17181;51.002;4.096;2023-08-08T20:43:43;16.90;99.90
30385;DHT22;17181;51.002;4.096;2023-08-08T20:46:09;16.90;99.90
30385;DHT22;17181;51.002;4.096;2023-08-08T20:48:38;16.80;99.90
30385;DHT22;17181;51.002;4.096;2023-08-08T20:51:03;16.90;99.90
30385;DHT22;17181;51.002;4.096;2023-08-08T20:53:29;16.90;99.90
30385;DHT22;17181;51.002;4.096;2023-08-08T20:55:55;16.90;99.90
30385;DHT22;17181;51.002;4.096;2023-08-08T20:58:21;17.00;99.90
30385;DHT22;17181;51.002;4.096;2023-08-08T21:00:47;16.90;99.90
30385;DHT22;17181;51.002;4.096;2023-08-08T21:03:12;17.00;99.90
30385;DHT22;17181;51.002;4.096;2023-08-08T21:05:38;17.00;99.90
30385;DHT22;17181;51.002;4.096;2023-08-08T21:08:04;16.90;99.90
30385;DHT22;17181;51.002;4.096;2023-08-08T21:10:31;17.00;99.90
30385;DHT22;17181;51.002;4.096;2023-08-08T21:12:56;17.00;99.90
30385;DHT22;17181;51.002;4.096;2023-08-08T21:15:22;17.00;99.90
30385;DHT22;17181;51.002;4.096;2023-08-08T21:17:48;17.00;99.90
30385;DHT22;17181;51.002;4.096;2023-08-08T21:20:15;17.00;99.90
30385;DHT22;17181;51.002;4.096;2023-08-08T21:22:41;17.00;99.90
30385;DHT22;17181;51.002;4.096;2023-08-08T21:25:07;16.90;99.90
